Union, WV (24983)

11:24 AM EDT on September 02, 2015 (GMT -0400)
kc8ysl kc8zec Organ Cave | | Change Station
CLOSE
Current Station
Personal Weather Station
Location: Organ Cave, WV
Elevation: 2310 ft
Nearby Weather Stations

Elev 2310 ft 37.71 °N, 80.42 °W | Updated 7 seconds ago

Partly Cloudy
Partly Cloudy
76.0 °F
Feels Like 77 °F
N
1.0
Wind Variable Wind from NW
Gusts 4.0 mph

Today
High -- | Low -- °F
--% Chance of Precip.
Yesterday
High -- | Low -- °F
Precip. -- in
6:52 AM 7:50 PM
Waning Gibbous, 79% visible
Pressure 30.20 in
Visibility 10.0 miles
Clouds Clear
Heat Index 77 °F
Dew Point 68 °F
Humidity 77%
Rainfall 0.00 in
Snow Depth Not available.
UV 7 out of 12
Pollen 9.30 out of 12
Air Quality Not available.
Flu Activity Not available.
METAR KLWB 021515Z AUTO 00000KT 10SM CLR 22/21 A3020 RMK AO2 T02200210
Pressure 30.20 in
Visibility 10.0 miles
Clouds Clear
Heat Index 77 °F
Dew Point 68 °F
Humidity 77%
Rainfall 0.00 in
Snow Depth Not available.
UV 7 out of 12
Pollen 9.30 out of 12
Air Quality Not available.
Flu Activity Not available.
METAR KLWB 021515Z AUTO 00000KT 10SM CLR 22/21 A3020 RMK AO2 T02200210

10-Day Weather Forecast

×

Almanac

Astronomy

Sep. 02, 2015 Rise Set
Actual Time
Civil Twilight
Nautical Twilight
Astronomical Twilight
Moon
Length of Visible Light
Length of Day
Tomorrow will be .
, % of the Moon is Illuminated

Today's Extremes

State Highs State Lows

Community

WunderPhotos

Upload Photos

1,851,770 photos uploaded!

WunderBlogs® & News

Nearby

Air Quality

  Air Quality AQ Index Pollutant
Not available.

Snow Depth

Station Depth Elevation

Earthquake Activity

City Distance Mag. Time & Date
Minimum magnitude displayed is 2.5.

Coastal Water Temperatures

Place Temperature

Stations

Nearby Weather Stations

Station Location Temp. Windchill Dew Point Humidity Wind Precip. Elev Updated Type